createdAt,value
2023-05-05T00:00:16.192Z,23.79
2023-05-05T00:01:16.210Z,23.80
2023-05-05T00:02:16.209Z,23.79
2023-05-05T00:03:16.218Z,23.79
2023-05-05T00:04:16.197Z,23.79
2023-05-05T00:05:16.151Z,23.79
2023-05-05T00:06:16.245Z,23.80
2023-05-05T00:07:16.194Z,23.79
2023-05-05T00:08:16.125Z,23.79
2023-05-05T00:09:16.138Z,23.78
2023-05-05T00:10:16.128Z,23.78
2023-05-05T00:11:16.122Z,23.78
2023-05-05T00:12:16.116Z,23.78
2023-05-05T00:13:16.089Z,23.78
2023-05-05T00:14:16.088Z,23.77
2023-05-05T00:15:16.061Z,23.78
2023-05-05T00:16:16.134Z,23.77
2023-05-05T00:17:16.150Z,23.77
2023-05-05T00:18:16.159Z,23.76
2023-05-05T00:19:16.164Z,23.77
2023-05-05T00:20:16.154Z,23.76
2023-05-05T00:21:16.183Z,23.75
2023-05-05T00:22:16.178Z,23.76
2023-05-05T00:23:16.235Z,23.76
2023-05-05T00:24:16.238Z,23.75
2023-05-05T00:25:16.265Z,23.75
2023-05-05T00:26:16.291Z,23.74
2023-05-05T00:27:16.272Z,23.74
2023-05-05T00:28:16.325Z,23.75
2023-05-05T00:29:16.308Z,23.74
2023-05-05T00:30:16.305Z,23.74
2023-05-05T00:31:16.469Z,23.75
2023-05-05T00:32:16.348Z,23.75
2023-05-05T00:33:16.385Z,23.74
2023-05-05T00:34:16.382Z,23.74
2023-05-05T00:35:16.401Z,23.73
2023-05-05T00:36:16.435Z,23.73
2023-05-05T00:37:16.455Z,23.73
2023-05-05T00:38:16.465Z,23.74
2023-05-05T00:39:16.477Z,23.73
2023-05-05T00:40:16.509Z,23.73
2023-05-05T00:41:16.531Z,23.73
2023-05-05T00:42:16.579Z,23.73
2023-05-05T00:43:16.555Z,23.73
2023-05-05T00:44:16.589Z,23.73
2023-05-05T00:45:16.598Z,23.73
2023-05-05T00:46:16.680Z,23.73
2023-05-05T00:47:16.710Z,23.73
2023-05-05T00:48:16.683Z,23.72
2023-05-05T00:49:16.710Z,23.72
2023-05-05T00:50:16.705Z,23.71
2023-05-05T00:51:16.764Z,23.71
2023-05-05T00:52:16.765Z,23.70
2023-05-05T00:53:16.758Z,23.71
2023-05-05T00:54:16.797Z,23.70
2023-05-05T00:55:16.820Z,23.70
2023-05-05T00:56:16.834Z,23.70
2023-05-05T00:57:16.867Z,23.70
2023-05-05T00:58:16.896Z,23.69
2023-05-05T00:59:16.886Z,23.69
2023-05-05T01:00:16.972Z,23.70
2023-05-05T01:01:16.992Z,23.70
2023-05-05T01:02:16.978Z,23.69
2023-05-05T01:03:17.095Z,23.69
2023-05-05T01:04:17.019Z,23.69
2023-05-05T01:05:17.038Z,23.69
2023-05-05T01:06:17.091Z,23.69
2023-05-05T01:07:17.094Z,23.68
2023-05-05T01:08:17.118Z,23.68
2023-05-05T01:09:17.122Z,23.68
2023-05-05T01:10:20.227Z,23.68
2023-05-05T01:11:17.162Z,23.67
2023-05-05T01:12:17.151Z,23.67
2023-05-05T01:13:17.147Z,23.67
2023-05-05T01:14:17.160Z,23.68
2023-05-05T01:15:17.135Z,23.67
2023-05-05T01:16:17.179Z,23.67
2023-05-05T01:17:17.116Z,23.67
2023-05-05T01:18:17.116Z,23.67
2023-05-05T01:19:17.123Z,23.66
2023-05-05T01:20:17.125Z,23.66
2023-05-05T01:21:17.130Z,23.66
2023-05-05T01:22:17.064Z,23.66
2023-05-05T01:23:17.100Z,23.66
2023-05-05T01:24:17.077Z,23.66
2023-05-05T01:25:17.064Z,23.66
2023-05-05T01:26:17.065Z,23.65
2023-05-05T01:27:17.037Z,23.66
2023-05-05T01:28:17.051Z,23.66
2023-05-05T01:29:17.108Z,23.66
2023-05-05T01:30:17.031Z,23.65
2023-05-05T01:31:17.117Z,23.65
2023-05-05T01:32:17.042Z,23.65
2023-05-05T01:33:17.015Z,23.65
2023-05-05T01:34:17.033Z,23.65
2023-05-05T01:35:17.022Z,23.64
2023-05-05T01:36:17.040Z,23.65
2023-05-05T01:37:16.963Z,23.65
2023-05-05T01:38:16.998Z,23.64
2023-05-05T01:39:16.969Z,23.64
2023-05-05T01:40:16.974Z,23.63
2023-05-05T01:41:16.951Z,23.64
2023-05-05T01:42:16.956Z,23.64
2023-05-05T01:43:16.941Z,23.63
2023-05-05T01:44:16.928Z,23.62
2023-05-05T01:45:16.920Z,23.63
2023-05-05T01:46:16.934Z,23.63
2023-05-05T01:47:16.934Z,23.62
2023-05-05T01:48:16.914Z,23.62
2023-05-05T01:49:16.871Z,23.62
2023-05-05T01:50:16.897Z,23.62
2023-05-05T01:51:16.900Z,23.62
2023-05-05T01:52:16.873Z,23.62
2023-05-05T01:53:16.874Z,23.61
2023-05-05T01:54:16.863Z,23.61
2023-05-05T01:55:16.856Z,23.62
2023-05-05T01:56:16.860Z,23.61
2023-05-05T01:57:16.859Z,23.60
2023-05-05T01:58:16.850Z,23.60
2023-05-05T01:59:16.846Z,23.60
2023-05-05T02:00:16.833Z,23.60
2023-05-05T02:01:16.841Z,23.61
2023-05-05T02:02:16.926Z,23.60
2023-05-05T02:03:17.065Z,23.60
2023-05-05T02:04:16.911Z,23.59
2023-05-05T02:05:16.961Z,23.59
2023-05-05T02:06:17.000Z,23.59
2023-05-05T02:07:17.025Z,23.60
2023-05-05T02:08:17.053Z,23.60
2023-05-05T02:09:17.068Z,23.60
2023-05-05T02:10:17.091Z,23.59
2023-05-05T02:11:17.145Z,23.59
2023-05-05T02:12:17.145Z,23.59
2023-05-05T02:13:17.254Z,23.59
2023-05-05T02:14:17.210Z,23.59
2023-05-05T02:15:17.242Z,23.58
2023-05-05T02:16:17.298Z,23.59
2023-05-05T02:17:17.313Z,23.59
2023-05-05T02:18:17.346Z,23.58
2023-05-05T02:19:17.359Z,23.58
2023-05-05T02:20:17.401Z,23.58
2023-05-05T02:21:17.413Z,23.58
2023-05-05T02:22:17.454Z,23.57
2023-05-05T02:23:17.490Z,23.57
2023-05-05T02:24:17.491Z,23.57
2023-05-05T02:25:17.538Z,23.57
2023-05-05T02:26:17.586Z,23.57
2023-05-05T02:27:17.621Z,23.57
2023-05-05T02:28:17.640Z,23.56
2023-05-05T02:29:17.674Z,23.57
2023-05-05T02:30:17.710Z,23.57
2023-05-05T02:31:17.784Z,23.57
2023-05-05T02:32:17.763Z,23.56
2023-05-05T02:33:17.820Z,23.55
2023-05-05T02:34:17.841Z,23.55
2023-05-05T02:35:17.876Z,23.55
2023-05-05T02:36:17.908Z,23.55
2023-05-05T02:37:17.928Z,23.55
2023-05-05T02:38:17.970Z,23.55
2023-05-05T02:39:17.977Z,23.54
2023-05-05T02:40:18.011Z,23.55
2023-05-05T02:41:18.088Z,23.55
2023-05-05T02:42:18.093Z,23.55
2023-05-05T02:43:18.204Z,23.55
2023-05-05T02:44:18.169Z,23.54
2023-05-05T02:45:18.206Z,23.54
2023-05-05T02:46:18.325Z,23.54
2023-05-05T02:47:18.275Z,23.54
2023-05-05T02:48:18.294Z,23.53
2023-05-05T02:49:18.325Z,23.54
2023-05-05T02:50:18.375Z,23.54
2023-05-05T02:51:18.409Z,23.54
2023-05-05T02:52:18.446Z,23.53
2023-05-05T02:53:18.448Z,23.53
2023-05-05T02:54:18.495Z,23.53
2023-05-05T02:55:18.616Z,23.53
2023-05-05T02:56:18.594Z,23.53
2023-05-05T02:57:18.610Z,23.53
2023-05-05T02:58:18.640Z,23.53
2023-05-05T02:59:18.650Z,23.53
2023-05-05T03:00:18.704Z,23.52
2023-05-05T03:01:18.750Z,23.52
2023-05-05T03:02:18.764Z,23.52
2023-05-05T03:03:18.916Z,23.52
2023-05-05T03:04:18.838Z,23.51
2023-05-05T03:05:18.862Z,23.51
2023-05-05T03:06:18.910Z,23.51
2023-05-05T03:07:18.919Z,23.52
2023-05-05T03:08:18.966Z,23.52
2023-05-05T03:09:18.992Z,23.52
2023-05-05T03:10:19.056Z,23.51
2023-05-05T03:11:19.093Z,23.51
2023-05-05T03:12:19.109Z,23.51
2023-05-05T03:13:19.118Z,23.51
2023-05-05T03:14:19.194Z,23.50
2023-05-05T03:15:19.223Z,23.50
2023-05-05T03:16:19.281Z,23.50
2023-05-05T03:17:19.297Z,23.49
2023-05-05T03:18:19.334Z,23.50
2023-05-05T03:19:19.372Z,23.50
2023-05-05T03:20:19.423Z,23.50
2023-05-05T03:21:19.441Z,23.50
2023-05-05T03:22:19.462Z,23.50
2023-05-05T03:23:19.502Z,23.50
2023-05-05T03:24:19.567Z,23.49
2023-05-05T03:25:19.574Z,23.49
2023-05-05T03:26:19.621Z,23.49
2023-05-05T03:27:19.657Z,23.49
2023-05-05T03:28:19.717Z,23.49
2023-05-05T03:29:19.771Z,23.48
2023-05-05T03:30:19.781Z,23.49
2023-05-05T03:31:19.869Z,23.49
2023-05-05T03:32:19.873Z,23.49
2023-05-05T03:33:19.935Z,23.48
2023-05-05T03:34:19.965Z,23.49
2023-05-05T03:35:19.988Z,23.48
2023-05-05T03:36:20.031Z,23.49
2023-05-05T03:37:20.049Z,23.48
2023-05-05T03:38:20.109Z,23.49
2023-05-05T03:39:20.173Z,23.47
2023-05-05T03:40:22.052Z,23.47
2023-05-05T03:41:21.214Z,23.47
2023-05-05T03:42:20.174Z,23.47
2023-05-05T03:43:20.185Z,23.47
2023-05-05T03:44:20.175Z,23.47
2023-05-05T03:45:20.160Z,23.47
2023-05-05T03:46:20.327Z,23.46
2023-05-05T03:47:20.181Z,23.46
2023-05-05T03:48:20.166Z,23.46
2023-05-05T03:49:20.145Z,23.46
2023-05-05T03:50:20.113Z,23.47
2023-05-05T03:51:20.150Z,23.45
2023-05-05T03:52:20.131Z,23.46
2023-05-05T03:53:20.119Z,23.45
2023-05-05T03:54:20.141Z,23.46
2023-05-05T03:55:20.162Z,23.45
2023-05-05T03:56:20.205Z,23.45
2023-05-05T03:57:20.269Z,23.45
2023-05-05T03:58:20.320Z,23.45
2023-05-05T03:59:20.348Z,23.45
2023-05-05T04:00:20.416Z,23.45
2023-05-05T04:01:20.451Z,23.45
2023-05-05T04:02:20.553Z,23.44
2023-05-05T04:03:20.600Z,23.44
2023-05-05T04:04:20.593Z,23.44
2023-05-05T04:05:20.610Z,23.43
2023-05-05T04:06:20.660Z,23.44
2023-05-05T04:07:20.702Z,23.45
2023-05-05T04:08:20.821Z,23.45
2023-05-05T04:09:20.827Z,23.44
2023-05-05T04:10:20.824Z,23.44
2023-05-05T04:11:20.871Z,23.45
2023-05-05T04:12:20.917Z,23.44
2023-05-05T04:13:20.936Z,23.44
2023-05-05T04:14:20.970Z,23.44
2023-05-05T04:15:21.031Z,23.44
2023-05-05T04:16:21.109Z,23.43
2023-05-05T04:17:21.130Z,23.44
2023-05-05T04:18:21.170Z,23.43
2023-05-05T04:19:21.231Z,23.43
2023-05-05T04:20:21.221Z,23.43
2023-05-05T04:21:21.293Z,23.42
2023-05-05T04:22:21.333Z,23.43
2023-05-05T04:23:21.383Z,23.43
2023-05-05T04:24:21.427Z,23.43
2023-05-05T04:25:21.494Z,23.42
2023-05-05T04:26:21.493Z,23.42
2023-05-05T04:27:21.588Z,23.42
2023-05-05T04:28:21.990Z,23.43
2023-05-05T04:29:21.646Z,23.43
2023-05-05T04:30:21.701Z,23.44
2023-05-05T04:31:21.793Z,23.43
2023-05-05T04:32:21.810Z,23.43
2023-05-05T04:33:21.820Z,23.42
2023-05-05T04:34:21.870Z,23.43
2023-05-05T04:35:21.902Z,23.43
2023-05-05T04:36:21.930Z,23.43
2023-05-05T04:37:21.978Z,23.44
2023-05-05T04:38:22.082Z,23.43
2023-05-05T04:39:22.097Z,23.44
2023-05-05T04:40:22.151Z,23.43
2023-05-05T04:41:22.175Z,23.43
2023-05-05T04:42:22.244Z,23.44
2023-05-05T04:43:22.261Z,23.43
2023-05-05T04:44:22.286Z,23.43
2023-05-05T04:45:22.310Z,23.42
2023-05-05T04:46:22.430Z,23.43
2023-05-05T04:47:22.434Z,23.42
2023-05-05T04:48:22.462Z,23.41
2023-05-05T04:49:22.516Z,23.37
2023-05-05T04:50:22.607Z,23.34
2023-05-05T04:51:22.632Z,23.33
2023-05-05T04:52:22.674Z,23.31
2023-05-05T04:53:22.676Z,23.28
2023-05-05T04:54:22.757Z,23.23
2023-05-05T04:55:22.760Z,23.18
2023-05-05T04:56:22.857Z,23.16
2023-05-05T04:57:22.872Z,23.15
2023-05-05T04:58:22.948Z,23.14
2023-05-05T04:59:22.982Z,23.10
2023-05-05T05:00:23.010Z,23.09
2023-05-05T05:01:23.148Z,23.09
2023-05-05T05:02:23.279Z,23.09
2023-05-05T05:03:23.287Z,23.08
2023-05-05T05:04:23.285Z,23.05
2023-05-05T05:05:23.331Z,23.04
2023-05-05T05:06:23.385Z,23.05
2023-05-05T05:07:23.443Z,23.04
2023-05-05T05:08:23.533Z,23.03
2023-05-05T05:09:23.614Z,23.02
2023-05-05T05:10:23.654Z,23.01
2023-05-05T05:11:23.722Z,23.00
2023-05-05T05:12:23.764Z,23.00
2023-05-05T05:13:23.955Z,22.99
2023-05-05T05:14:23.880Z,23.00
2023-05-05T05:15:23.995Z,22.99
2023-05-05T05:16:24.040Z,22.99
2023-05-05T05:17:24.143Z,22.97
2023-05-05T05:18:24.166Z,22.97
2023-05-05T05:19:24.193Z,22.96
2023-05-05T05:20:24.282Z,22.96
2023-05-05T05:21:24.335Z,22.96
2023-05-05T05:22:24.393Z,22.95
2023-05-05T05:23:24.464Z,22.95
2023-05-05T05:24:24.512Z,22.94
2023-05-05T05:25:24.537Z,22.93
2023-05-05T05:26:24.643Z,22.93
2023-05-05T05:27:24.659Z,22.93
2023-05-05T05:28:24.763Z,22.92
2023-05-05T05:29:24.807Z,22.93
2023-05-05T05:30:24.832Z,22.93
2023-05-05T05:31:24.962Z,22.94
2023-05-05T05:32:24.971Z,22.93
2023-05-05T05:33:25.055Z,22.93
2023-05-05T05:34:25.079Z,22.93
2023-05-05T05:35:25.181Z,22.93
2023-05-05T05:36:25.193Z,22.93
2023-05-05T05:37:25.254Z,22.94
2023-05-05T05:38:25.366Z,22.95
2023-05-05T05:39:25.394Z,22.96
2023-05-05T05:40:25.486Z,22.98
2023-05-05T05:41:25.490Z,22.99
2023-05-05T05:42:25.547Z,22.99
2023-05-05T05:43:25.610Z,23.00
2023-05-05T05:44:25.658Z,23.02
2023-05-05T05:45:25.707Z,23.03
2023-05-05T05:46:25.788Z,23.04
2023-05-05T05:47:25.827Z,23.02
2023-05-05T05:48:25.878Z,23.06
2023-05-05T05:49:25.951Z,23.08
2023-05-05T05:50:25.990Z,23.12
2023-05-05T05:51:26.113Z,23.16
2023-05-05T05:52:26.126Z,23.20
2023-05-05T05:53:26.199Z,23.23
2023-05-05T05:54:26.252Z,23.29
2023-05-05T05:55:26.293Z,23.34
2023-05-05T05:56:26.796Z,23.37
2023-05-05T05:57:26.391Z,23.40
2023-05-05T05:58:26.478Z,23.44
2023-05-05T05:59:26.503Z,23.49
2023-05-05T06:00:26.542Z,23.52
2023-05-05T06:01:26.615Z,23.55
2023-05-05T06:02:26.676Z,23.58
2023-05-05T06:03:26.906Z,23.61
2023-05-05T06:04:26.791Z,23.64
2023-05-05T06:05:26.727Z,23.66
2023-05-05T06:06:26.797Z,23.69
2023-05-05T06:07:26.790Z,23.71
2023-05-05T06:08:26.836Z,23.73
2023-05-05T06:09:26.867Z,23.76
2023-05-05T06:10:28.340Z,23.78
2023-05-05T06:11:26.900Z,23.80
2023-05-05T06:12:26.877Z,23.81
2023-05-05T06:13:26.899Z,23.83
2023-05-05T06:14:26.925Z,23.85
2023-05-05T06:15:26.942Z,23.87
2023-05-05T06:16:27.047Z,23.88
2023-05-05T06:17:26.994Z,23.90
2023-05-05T06:18:27.027Z,23.92
2023-05-05T06:19:26.974Z,23.94
2023-05-05T06:20:26.976Z,23.94
2023-05-05T06:21:26.979Z,23.97
2023-05-05T06:22:26.974Z,23.99
2023-05-05T06:23:27.715Z,24.00
2023-05-05T06:24:26.976Z,24.02
2023-05-05T06:25:26.990Z,24.04
2023-05-05T06:26:26.977Z,24.05
2023-05-05T06:27:26.965Z,24.06
2023-05-05T06:28:26.954Z,24.08
2023-05-05T06:29:26.976Z,24.09
2023-05-05T06:30:26.970Z,24.10
2023-05-05T06:31:26.962Z,24.12
2023-05-05T06:32:26.951Z,24.13
2023-05-05T06:33:27.003Z,24.14
2023-05-05T06:34:26.957Z,24.16
2023-05-05T06:35:26.979Z,24.18
2023-05-05T06:36:27.037Z,24.19
2023-05-05T06:37:27.009Z,24.20
2023-05-05T06:38:27.040Z,24.21
2023-05-05T06:39:27.086Z,24.23
2023-05-05T06:40:27.113Z,24.23
2023-05-05T06:41:27.144Z,24.25
2023-05-05T06:42:27.198Z,24.26
2023-05-05T06:43:27.257Z,24.27
2023-05-05T06:44:27.271Z,24.28
2023-05-05T06:45:27.329Z,24.31
2023-05-05T06:46:27.440Z,24.33
2023-05-05T06:47:27.859Z,24.35
2023-05-05T06:48:27.501Z,24.37
2023-05-05T06:49:27.710Z,24.39
2023-05-05T06:50:27.693Z,24.44
2023-05-05T06:51:27.687Z,24.46
2023-05-05T06:52:27.722Z,24.47
2023-05-05T06:53:27.804Z,24.46
2023-05-05T06:54:27.934Z,24.44
2023-05-05T06:55:27.945Z,24.44
2023-05-05T06:56:27.972Z,24.44
2023-05-05T06:57:28.037Z,24.44
2023-05-05T06:58:28.117Z,24.43
2023-05-05T06:59:28.159Z,24.43
2023-05-05T07:00:28.292Z,24.41
2023-05-05T07:01:28.346Z,24.39
2023-05-05T07:02:28.510Z,24.38
2023-05-05T07:03:28.467Z,24.39
2023-05-05T07:04:28.482Z,24.40
2023-05-05T07:05:28.603Z,24.41
2023-05-05T07:06:28.608Z,24.42
2023-05-05T07:07:28.717Z,24.40
2023-05-05T07:08:28.781Z,24.40
2023-05-05T07:09:28.841Z,24.39
2023-05-05T07:10:28.858Z,24.41
2023-05-05T07:11:28.950Z,24.41
2023-05-05T07:12:29.016Z,24.41
2023-05-05T07:13:29.056Z,24.40
2023-05-05T07:14:29.134Z,24.42
2023-05-05T07:15:29.890Z,24.42
2023-05-05T07:16:29.307Z,24.42
2023-05-05T07:17:29.338Z,24.44
2023-05-05T07:18:29.530Z,24.44
2023-05-05T07:19:29.459Z,24.46
2023-05-05T07:20:29.529Z,24.47
2023-05-05T07:21:29.632Z,24.47
2023-05-05T07:22:29.645Z,24.47
2023-05-05T07:23:29.701Z,24.48
2023-05-05T07:24:29.764Z,24.48
2023-05-05T07:25:29.783Z,24.50
2023-05-05T07:26:29.852Z,24.51
2023-05-05T07:27:29.937Z,24.50
2023-05-05T07:28:29.993Z,24.51
2023-05-05T07:29:30.039Z,24.51
2023-05-05T07:30:30.103Z,24.50
2023-05-05T07:31:30.200Z,24.51
2023-05-05T07:32:30.211Z,24.54
2023-05-05T07:33:30.250Z,24.54
2023-05-05T07:34:30.394Z,24.57
2023-05-05T07:35:30.370Z,24.60
2023-05-05T07:36:30.441Z,24.62
2023-05-05T07:37:30.465Z,24.63
2023-05-05T07:38:30.522Z,24.62
2023-05-05T07:39:30.602Z,24.63
2023-05-05T07:40:30.646Z,24.66
2023-05-05T07:41:30.629Z,24.68
2023-05-05T07:42:30.823Z,24.68
2023-05-05T07:43:30.741Z,24.67
2023-05-05T07:44:30.773Z,24.66
2023-05-05T07:45:30.827Z,24.64
2023-05-05T07:46:30.883Z,24.62
2023-05-05T07:47:31.336Z,24.61
2023-05-05T07:48:30.969Z,24.60
2023-05-05T07:49:31.012Z,24.55
2023-05-05T07:50:31.140Z,24.54
2023-05-05T07:51:32.017Z,24.53
2023-05-05T07:52:45.272Z,24.54
2023-05-05T07:53:32.174Z,24.53
2023-05-05T07:54:31.173Z,24.52
2023-05-05T07:55:31.156Z,24.51
2023-05-05T07:56:31.121Z,24.51
2023-05-05T07:57:31.130Z,24.50
2023-05-05T07:58:31.116Z,24.49
2023-05-05T07:59:31.115Z,24.50
2023-05-05T08:00:31.126Z,24.50
2023-05-05T08:01:31.114Z,24.49
2023-05-05T08:02:31.283Z,24.49
2023-05-05T08:03:31.362Z,24.49
2023-05-05T08:04:31.309Z,24.50
2023-05-05T08:05:31.371Z,24.49
2023-05-05T08:06:31.547Z,24.50
2023-05-05T08:07:31.444Z,24.49
2023-05-05T08:08:31.505Z,24.50
2023-05-05T08:09:31.564Z,24.49
2023-05-05T08:10:31.624Z,24.49
2023-05-05T08:11:31.695Z,24.48
2023-05-05T08:12:31.822Z,24.48
2023-05-05T08:13:31.825Z,24.49
2023-05-05T08:14:31.883Z,24.49
2023-05-05T08:15:31.946Z,24.50
2023-05-05T08:16:32.033Z,24.49
2023-05-05T08:17:32.095Z,24.49
2023-05-05T08:18:32.112Z,24.49
2023-05-05T08:19:32.167Z,24.50
2023-05-05T08:20:32.228Z,24.50
2023-05-05T08:21:32.323Z,24.50
2023-05-05T08:22:32.425Z,24.50
2023-05-05T08:23:32.416Z,24.51
2023-05-05T08:24:32.490Z,24.50
2023-05-05T08:25:32.551Z,24.51
2023-05-05T08:26:32.595Z,24.52
2023-05-05T08:27:32.666Z,24.51
2023-05-05T08:28:32.748Z,24.52
2023-05-05T08:29:32.755Z,24.52
2023-05-05T08:30:33.369Z,24.52
2023-05-05T08:31:32.961Z,24.52
2023-05-05T08:32:32.995Z,24.54
2023-05-05T08:33:32.987Z,24.53
2023-05-05T08:34:33.041Z,24.54
2023-05-05T08:35:33.118Z,24.55
2023-05-05T08:36:33.151Z,24.57
2023-05-05T08:37:33.219Z,24.57
2023-05-05T08:38:33.443Z,24.56
2023-05-05T08:39:33.347Z,24.56
2023-05-05T08:40:33.383Z,24.54
2023-05-05T08:41:33.448Z,24.53
2023-05-05T08:42:37.814Z,24.52
2023-05-05T08:43:34.518Z,24.51
2023-05-05T08:44:33.511Z,24.49
2023-05-05T08:45:33.488Z,24.46
2023-05-05T08:46:33.545Z,24.45
2023-05-05T08:47:33.598Z,24.43
2023-05-05T08:48:33.633Z,24.42
2023-05-05T08:49:33.661Z,24.40
2023-05-05T08:50:33.726Z,24.39
2023-05-05T08:51:33.926Z,24.38
2023-05-05T08:52:34.035Z,24.37
2023-05-05T08:53:33.921Z,24.37
2023-05-05T08:54:33.914Z,24.36
2023-05-05T08:55:33.971Z,24.34
2023-05-05T08:56:33.974Z,24.32
2023-05-05T08:57:33.984Z,24.31
2023-05-05T08:58:33.970Z,24.31
2023-05-05T08:59:33.994Z,24.30
2023-05-05T09:00:34.027Z,24.30
2023-05-05T09:01:34.164Z,24.30
2023-05-05T09:02:34.191Z,24.30
2023-05-05T09:03:34.151Z,24.30
2023-05-05T09:04:34.056Z,24.30
2023-05-05T09:05:34.081Z,24.29
2023-05-05T09:06:34.197Z,24.29
2023-05-05T09:07:34.373Z,24.27
2023-05-05T09:08:34.177Z,24.27
2023-05-05T09:09:34.154Z,24.27
2023-05-05T09:10:34.215Z,24.26
2023-05-05T09:11:34.295Z,24.26
2023-05-05T09:12:34.192Z,24.26
2023-05-05T09:13:34.188Z,24.27
2023-05-05T09:14:34.186Z,24.26
2023-05-05T09:15:34.204Z,24.25
2023-05-05T09:16:34.273Z,24.24
2023-05-05T09:17:34.236Z,24.24
2023-05-05T09:18:34.252Z,24.24
2023-05-05T09:19:34.236Z,24.24
2023-05-05T09:20:34.260Z,24.23
2023-05-05T09:21:34.239Z,24.23
2023-05-05T09:22:34.404Z,24.23
2023-05-05T09:23:34.324Z,24.24
2023-05-05T09:24:34.284Z,24.24
2023-05-05T09:25:34.349Z,24.25
2023-05-05T09:26:34.541Z,24.26
2023-05-05T09:27:34.376Z,24.26
2023-05-05T09:28:34.416Z,24.27
2023-05-05T09:29:34.475Z,24.27
2023-05-05T09:30:34.491Z,24.27
2023-05-05T09:31:34.551Z,24.29
2023-05-05T09:32:34.567Z,24.31
2023-05-05T09:33:34.603Z,24.34
2023-05-05T09:34:34.629Z,24.38
2023-05-05T09:35:34.704Z,24.43
2023-05-05T09:36:34.732Z,24.48
2023-05-05T09:37:34.828Z,24.52
2023-05-05T09:38:34.832Z,24.55
2023-05-05T09:39:34.975Z,24.62
2023-05-05T09:40:34.986Z,24.66
2023-05-05T09:41:35.039Z,24.69
2023-05-05T09:42:35.440Z,24.74
2023-05-05T09:43:35.078Z,24.77
2023-05-05T09:44:35.173Z,24.79
2023-05-05T09:45:35.179Z,24.81
2023-05-05T09:46:35.241Z,24.83
2023-05-05T09:47:35.472Z,24.86
2023-05-05T09:48:35.293Z,24.89
2023-05-05T09:49:35.303Z,24.94
2023-05-05T09:50:35.314Z,24.98
2023-05-05T09:51:35.332Z,25.01
2023-05-05T09:52:35.405Z,25.05
2023-05-05T09:53:35.382Z,25.09
2023-05-05T09:54:35.385Z,25.12
2023-05-05T09:55:35.433Z,25.14
2023-05-05T09:56:35.414Z,25.17
2023-05-05T09:57:35.897Z,25.21
2023-05-05T09:58:35.461Z,25.25
2023-05-05T09:59:35.401Z,25.27
2023-05-05T10:00:35.458Z,25.28
2023-05-05T10:01:35.497Z,25.29
2023-05-05T10:02:35.484Z,25.28
2023-05-05T10:03:35.483Z,25.30
2023-05-05T10:04:35.494Z,25.32
2023-05-05T10:05:35.457Z,25.34
2023-05-05T10:06:35.473Z,25.35
2023-05-05T10:07:35.451Z,25.36
2023-05-05T10:08:35.490Z,25.37
2023-05-05T10:09:35.515Z,25.39
2023-05-05T10:10:35.543Z,25.42
2023-05-05T10:11:35.603Z,25.45
2023-05-05T10:12:35.647Z,25.47
2023-05-05T10:13:35.689Z,25.49
2023-05-05T10:14:35.782Z,25.49
2023-05-05T10:15:35.755Z,25.51
2023-05-05T10:16:35.880Z,25.53
2023-05-05T10:17:35.921Z,25.54
2023-05-05T10:18:35.984Z,25.54
2023-05-05T10:19:35.967Z,25.56
2023-05-05T10:20:36.058Z,25.56
2023-05-05T10:21:36.131Z,25.55
2023-05-05T10:22:36.144Z,25.57
2023-05-05T10:23:36.214Z,25.57
2023-05-05T10:24:36.289Z,25.58
2023-05-05T10:25:36.307Z,25.58
2023-05-05T10:26:36.373Z,25.59
2023-05-05T10:27:36.415Z,25.60
2023-05-05T10:28:36.534Z,25.61
2023-05-05T10:29:36.495Z,25.61
2023-05-05T10:30:36.615Z,25.62
2023-05-05T10:31:36.618Z,25.63
2023-05-05T10:33:37.997Z,25.64
2023-05-05T10:34:36.663Z,25.65
2023-05-05T10:35:36.620Z,25.66
2023-05-05T10:36:36.620Z,25.65
2023-05-05T10:37:36.632Z,25.66
2023-05-05T10:38:36.601Z,25.66
2023-05-05T10:39:36.613Z,25.67
2023-05-05T10:40:36.556Z,25.67
2023-05-05T10:41:36.545Z,25.66
2023-05-05T10:42:36.582Z,25.65
2023-05-05T10:43:36.631Z,25.65
2023-05-05T10:44:36.651Z,25.65
2023-05-05T10:45:36.765Z,25.67
2023-05-05T10:46:36.870Z,25.67
2023-05-05T10:47:36.861Z,25.67
2023-05-05T10:48:36.828Z,25.68
2023-05-05T10:49:36.880Z,25.70
2023-05-05T10:50:36.879Z,25.73
2023-05-05T10:51:40.601Z,25.74
2023-05-05T10:52:36.982Z,25.75
2023-05-05T10:53:36.967Z,25.76
2023-05-05T10:54:38.352Z,25.76
2023-05-05T10:55:36.936Z,25.78
2023-05-05T10:56:36.948Z,25.80
2023-05-05T10:57:36.926Z,25.80
2023-05-05T10:58:51.321Z,25.79
2023-05-05T10:59:38.199Z,25.80
2023-05-05T11:00:36.916Z,25.81
2023-05-05T11:01:36.959Z,25.82
2023-05-05T11:02:37.034Z,25.83
2023-05-05T11:03:36.917Z,25.84
2023-05-05T11:04:36.866Z,25.84
2023-05-05T11:05:36.843Z,25.85
2023-05-05T11:06:36.862Z,25.86
2023-05-05T11:07:36.859Z,25.86
2023-05-05T11:08:36.880Z,25.87
2023-05-05T11:09:36.919Z,25.88
2023-05-05T11:10:36.991Z,25.90
2023-05-05T11:11:37.017Z,25.89
2023-05-05T11:12:38.938Z,25.90
2023-05-05T11:13:37.125Z,25.92
2023-05-05T11:14:37.180Z,25.91
2023-05-05T11:15:37.244Z,25.91
2023-05-05T11:16:37.319Z,25.92
2023-05-05T11:17:37.326Z,25.93
2023-05-05T11:18:37.466Z,25.93
2023-05-05T11:19:37.443Z,25.94
2023-05-05T11:20:37.485Z,25.95
2023-05-05T11:21:37.503Z,25.95
2023-05-05T11:22:37.558Z,25.96
2023-05-05T11:23:37.614Z,25.97
2023-05-05T11:24:37.659Z,25.98
2023-05-05T11:25:38.334Z,25.99
2023-05-05T11:26:37.743Z,25.99
2023-05-05T11:27:37.796Z,25.99
2023-05-05T11:28:37.909Z,26.00
2023-05-05T11:29:37.887Z,26.00
2023-05-05T11:30:37.946Z,26.00
2023-05-05T11:31:38.124Z,26.00
2023-05-05T11:32:38.079Z,25.98
2023-05-05T11:33:38.460Z,25.97
2023-05-05T11:34:38.226Z,25.95
2023-05-05T11:35:38.201Z,25.93
2023-05-05T11:36:38.270Z,25.90
2023-05-05T11:37:38.344Z,25.87
2023-05-05T11:38:39.477Z,25.84
2023-05-05T11:39:38.463Z,25.81
2023-05-05T11:40:38.488Z,25.79
2023-05-05T11:41:38.545Z,25.75
2023-05-05T11:42:38.612Z,25.73
2023-05-05T11:43:38.617Z,25.69
2023-05-05T11:44:38.681Z,25.67
2023-05-05T11:45:38.732Z,25.64
2023-05-05T11:46:38.859Z,25.62
2023-05-05T11:47:38.900Z,25.61
2023-05-05T11:48:38.900Z,25.58
2023-05-05T11:49:38.987Z,25.56
2023-05-05T11:50:39.150Z,25.53
2023-05-05T11:51:39.050Z,25.51
2023-05-05T11:52:39.079Z,25.47
2023-05-05T11:53:39.117Z,25.45
2023-05-05T11:54:39.192Z,25.45
2023-05-05T11:55:39.200Z,25.44
2023-05-05T11:56:39.189Z,25.42
2023-05-05T11:57:39.209Z,25.41
2023-05-05T11:58:39.274Z,25.40
2023-05-05T11:59:39.245Z,25.38
2023-05-05T12:00:39.263Z,25.37
2023-05-05T12:01:39.249Z,25.36
2023-05-05T12:02:39.329Z,25.34
2023-05-05T12:03:39.402Z,25.33
2023-05-05T12:04:39.260Z,25.32
2023-05-05T12:05:39.235Z,25.32
2023-05-05T12:06:39.386Z,25.31
2023-05-05T12:07:39.256Z,25.30
2023-05-05T12:08:39.243Z,25.30
2023-05-05T12:09:39.219Z,25.28
2023-05-05T12:10:39.230Z,25.27
2023-05-05T12:11:39.202Z,25.28
2023-05-05T12:12:39.357Z,25.27
2023-05-05T12:13:39.186Z,25.26
2023-05-05T12:14:39.204Z,25.26
2023-05-05T12:15:39.199Z,25.25
2023-05-05T12:16:39.237Z,25.24
2023-05-05T12:17:39.205Z,25.24
2023-05-05T12:18:39.202Z,25.24
2023-05-05T12:19:39.180Z,25.23
2023-05-05T12:20:39.189Z,25.20
2023-05-05T12:21:39.161Z,25.20
2023-05-05T12:22:39.327Z,25.19
2023-05-05T12:23:39.165Z,25.18
2023-05-05T12:24:39.167Z,25.17
2023-05-05T12:25:39.196Z,25.16
2023-05-05T12:26:39.255Z,25.16
2023-05-05T12:27:39.310Z,25.15
2023-05-05T12:28:39.180Z,25.14
2023-05-05T12:29:39.223Z,25.13
2023-05-05T12:30:39.229Z,25.13
2023-05-05T12:31:39.194Z,25.12
2023-05-05T12:32:39.272Z,25.12
2023-05-05T12:33:39.232Z,25.11
2023-05-05T12:34:39.237Z,25.11
2023-05-05T12:35:39.239Z,25.10
2023-05-05T12:36:39.254Z,25.10
2023-05-05T12:37:39.263Z,25.10
2023-05-05T12:38:39.333Z,25.10
2023-05-05T12:39:39.286Z,25.09
2023-05-05T12:40:39.277Z,25.07
2023-05-05T12:41:39.275Z,25.07
2023-05-05T12:42:39.308Z,25.06
2023-05-05T12:43:39.408Z,25.05
2023-05-05T12:44:39.353Z,25.03
2023-05-05T12:45:39.386Z,25.04
2023-05-05T12:46:39.430Z,25.04
2023-05-05T12:47:39.399Z,25.04
2023-05-05T12:48:39.406Z,25.03
2023-05-05T12:49:39.412Z,25.04
2023-05-05T12:50:39.404Z,25.03
2023-05-05T12:51:39.400Z,25.03
2023-05-05T12:52:39.416Z,25.03
2023-05-05T12:53:39.479Z,25.03